Latest Coastal Weather Observations for Norfolk Island

IDN60701

Issued at 11:01 pm EST Tuesday 30 May 2017 (issued every 10 minutes, with the page automatically refreshed every 10 minutes)

About coastal observations | Map of coastal stations | Coastal observations for NSW | Marine services | Other Formats
Station Details ID: 200288 Name: NORFOLK ISLAND AERO Lat: -29.04 Lon: 167.94 Height: 111.73 m
Data from the previous 72 hours. | See also: Recent months at Norfolk Island
Date/Time
EST
Temp
°C
Wind Pressure Rain since
9am
mm
Weather Cloud Vis
km
Sea
Height
m
Swell
Dir  Spd
kts
Gust
kts
hPa Trend Height
m
Period
s
Dir
30/11:00pm 17.5 CALM 0 0 1021.5 - 1.4 - Cloudy 10 - - - -
30/10:30pm 17.9 SSW 3 4 1021.2 - 1.4 - Partly cloudy 10 - - - -
30/10:00pm 17.8 S 2 5 1021.4 - 1.4 - Partly cloudy 10 - - - -
30/09:30pm 17.3 CALM 0 0 1021.4 - 1.4 - Cloudy 10 - - - -
30/09:00pm 17.3 CALM 0 0 1021.3 - 1.4 - Partly cloudy 10 - - - -
30/08:30pm 17.6 S 3 4 1021.1 - 1.4 - Partly cloudy 10 - - - -
30/08:00pm 18.6 SSE 5 6 1021.2 - 1.4 - Cloudy 10 - - - -
30/07:30pm 18.6 SSW 5 7 1021.3 - 1.4 - Partly cloudy 10 - - - -
30/07:00pm 18.5 SSW 5 6 1021.2 - 1.4 - Partly cloudy 10 - - - -
30/06:30pm 17.3 WSW 3 4 1020.9 - 1.4 - Partly cloudy 10 - - - -
30/06:00pm 17.0 WSW 3 4 1020.4 - 1.4 - Partly cloudy 10 - - - -
30/05:30pm 16.5 WSW 4 5 1020.4 - 1.4 - Partly cloudy 10 - - - -
30/05:00pm 16.7 WSW 3 5 1020.6 - 1.4 Drizzle Cloudy 10 - - - -
30/04:41pm 17.0 SW 6 17 1020.6 - 1.4 - Partly cloudy 10 - - - -
30/04:30pm 17.7 WSW 9 15 1020.7 - 1.4 - Partly cloudy 10 - - - -
30/04:21pm 18.3 WNW 5 9 1020.4 - 1.4 - Partly cloudy 10 - - - -
30/04:00pm 18.1 WNW 6 9 1020.3 - 1.4 - Partly cloudy 10 - - - -
30/03:30pm 18.1 W 7 10 1020.1 - 1.4 - Mostly clear 10 - - - -
30/03:00pm 17.8 W 7 10 1019.9 - 1.4 - Mostly clear 10 - - - -
30/02:30pm 17.7 NW 6 9 1019.9 - 1.4 - Mostly clear 10 - - - -
30/02:00pm 18.1 W 8 12 1019.6 - 1.4 Showers Cloudy 10 - - - -
30/01:56pm 18.0 W 8 10 1019.8 - 1.4 Drizzle Mostly clear 10 - - - -
30/01:30pm 17.5 W 11 16 1019.6 - 0.6 Showers Mostly clear 6 - - - -
30/01:00pm 17.8 W 14 19 1019.6 - 0.4 - Partly cloudy 7 - - - -
30/12:53pm 18.4 W 12 19 1019.6 - 0.0 Showers Mostly clear 5 - - - -
30/12:30pm 20.8 WNW 8 15 1019.2 - 0.0 - Mostly clear 10 - - - -
30/12:00pm 21.4 WNW 8 13 1019.7 - 0.0 - Mostly clear 10 - - - -
30/11:30am 21.3 NW 9 14 1019.9 - 0.0 - Mostly clear 10 - - - -
30/11:00am 21.6 NW 9 14 1020.4 - 0.0 - Mostly clear 10 - - - -
30/10:30am 21.5 W 9 15 1020.7 - 0.0 - - 10 - - - -
30/10:00am 21.3 NW 9 15 1020.9 - 0.0 - - 10 - - - -
30/09:30am 21.2 WNW 8 13 1021.4 - 0.0 - - 10 - - - -
30/09:00am 20.6 WNW 9 15 1021.5 - 0.0 - Mostly clear 10 - - - -
30/08:30am 20.8 NW 8 12 1021.6 - 0.0 - Mostly clear 10 - - - -
30/08:00am 20.4 WNW 7 9 1021.7 - 0.0 - Mostly clear 10 - - - -
30/07:30am 19.8 W 8 12 1021.8 - 0.0 - Mostly clear 10 - - - -
30/07:00am 19.3 WNW 7 10 1021.8 - 0.0 - Mostly clear 10 - - - -
30/06:30am 18.6 WNW 6 9 1021.7 - 0.0 - - 10 - - - -
30/06:00am 17.7 W 6 9 1021.5 - 0.0 - - 10 - - - -
30/05:30am 16.9 NNW 5 8 1021.2 - 0.0 - - 10 - - - -
30/05:00am 17.0 N 5 7 1021.2 - 0.0 - Mostly cloudy 10 - - - -
30/04:30am 17.2 NNE 3 5 1020.7 - 0.0 - Partly cloudy 10 - - - -
30/04:00am 17.4 NNE 3 5 1020.6 - 0.0 - Partly cloudy 10 - - - -
30/03:30am 17.1 NNE 5 7 1020.2 - 0.0 - Cloudy 10 - - - -
30/03:00am 16.8 NNE 6 6 1020.2 - 0.0 - - 10 - - - -
30/02:30am 16.7 NE 3 4 1020.7 - 0.0 - - 10 - - - -
30/02:00am 16.1 CALM 0 0 1020.4 - 0.0 - Cloudy 10 - - - -
30/01:30am 16.4 NE 4 5 1020.3 - 0.0 - - 10 - - - -
30/01:00am 15.9 NNE 5 6 1020.5 - 0.0 - - 10 - - - -
30/12:30am 15.5 CALM 0 0 1020.8 - 0.0 - - 10 - - - -
30/12:00am 15.5 CALM 0 0 1021.2 - 0.0 - - 10 - - - -
 
Date/Time
EST
Temp
°C
Wind Pressure Rain since
9am
mm
Weather Cloud Vis
km
Sea
Height
m
Swell
Dir  Spd
kts
Gust
kts
hPa Trend Height
m
Period
s
Dir
29/11:30pm 15.3 CALM 0 0 1021.4 - 0.0 - Partly cloudy 10 - - - -
29/11:00pm 15.5 CALM 0 0 1021.8 - 0.0 - Cloudy 10 - - - -
29/10:30pm 16.0 CALM 0 0 1021.8 - 0.0 - Partly cloudy 10 - - - -
29/10:00pm 15.6 CALM 0 0 1022.1 - 0.0 - Partly cloudy 10 - - - -
29/09:30pm 14.5 NNE 2 4 1022.2 - 0.0 - - 10 - - - -
29/09:00pm 15.9 NNE 3 5 1022.2 - 0.0 - - 10 - - - -
29/08:30pm 15.3 NNE 4 5 1022.2 - 0.0 - - 10 - - - -
29/08:00pm 15.7 NE 4 5 1022.3 - 0.0 - - 10 - - - -
29/07:30pm 15.6 NE 4 5 1022.1 - 0.0 - - 10 - - - -
29/07:00pm 14.4 NE 4 4 1022.2 - 0.0 - - 10 - - - -
29/06:30pm 14.2 ENE 1 3 1022.2 - 0.0 - - 10 - - - -
29/06:00pm 15.0 ENE 3 4 1021.9 - 0.0 - - 10 - - - -
29/05:30pm 14.8 CALM 0 0 1021.7 - 0.0 - - 10 - - - -
29/05:00pm 14.7 ENE 2 4 1021.4 - 0.0 - - 10 - - - -
29/04:30pm 15.6 ENE 1 4 1021.3 - 0.0 - - 10 - - - -
29/04:00pm 16.6 ENE 4 4 1021.2 - 0.0 - - 10 - - - -
29/03:30pm 17.9 ENE 5 6 1021.1 - 0.0 - - 10 - - - -
29/03:00pm 18.4 NE 5 7 1021.1 - 0.0 - Mostly clear 10 - - - -
29/02:30pm 18.5 ENE 7 9 1020.9 - 0.0 - - 10 - - - -
29/02:00pm 18.8 NE 6 8 1021.1 - 0.0 - Mostly clear 10 - - - -
29/01:30pm 19.1 NE 6 9 1020.9 - 0.0 - Mostly clear 10 - - - -
29/01:00pm 19.6 NE 5 7 1020.8 - 0.0 - Mostly clear 10 - - - -
29/12:40pm 19.8 NE 5 7 1020.9 - 0.0 - Mostly clear 10 - - - -
29/12:30pm 20.1 ENE 5 7 1021.1 - 0.0 - Partly cloudy 10 - - - -
29/12:00pm 19.9 SE 5 7 1021.2 - 0.0 - Mostly clear 10 - - - -
29/11:30am 19.3 WNW 5 6 1021.5 - 0.0 - Mostly clear 10 - - - -
29/11:00am 19.0 NE 4 5 1022.0 - 0.0 - Mostly clear 10 - - - -
29/10:30am 19.5 E 4 6 1022.3 - 0.0 - Mostly clear 10 - - - -
29/10:00am 19.3 SSE 7 9 1022.6 - 0.0 - Mostly clear 10 - - - -
29/09:30am 19.4 SE 5 8 1023.0 - 0.0 - Mostly clear 10 - - - -
29/09:00am 19.9 SE 5 7 1023.3 - 0.0 - Mostly clear 10 - - - -
29/08:30am 19.3 E 5 7 1023.3 - 0.0 - Mostly clear 10 - - - -
29/08:00am 18.9 ESE 5 7 1023.4 - 0.0 - Mostly clear 10 - - - -
29/07:30am 18.8 ESE 5 6 1023.4 - 0.0 - Mostly clear 10 - - - -
29/07:00am 18.1 ENE 1 3 1023.4 - 0.0 - Mostly clear 10 - - - -
29/06:30am 16.9 CALM 0 0 1023.1 - 0.0 - - 10 - - - -
29/06:00am 14.7 CALM 0 0 1023.0 - 0.0 - - 10 - - - -
29/05:30am 15.2 CALM 0 0 1022.8 - 0.0 - Partly cloudy 10 - - - -
29/05:00am 14.4 CALM 0 0 1022.5 - 0.0 - Mostly clear 10 - - - -
29/04:30am 14.6 ENE 3 4 1022.3 - 0.0 - Partly cloudy 10 - - - -
29/04:00am 14.9 ENE 4 4 1022.1 - 0.0 - - 10 - - - -
29/03:30am 14.9 ENE 4 5 1021.9 - 0.0 - Partly cloudy 10 - - - -
29/03:00am 14.8 E 3 4 1022.0 - 0.0 - Partly cloudy 10 - - - -
29/02:30am 15.6 E 4 4 1022.0 - 0.0 - Partly cloudy 10 - - - -
29/02:00am 15.2 E 3 4 1022.3 - 0.0 - Mostly cloudy 10 - - - -
29/01:30am 15.6 E 3 4 1022.3 - 0.0 - Partly cloudy 10 - - - -
29/01:00am 15.5 E 3 4 1022.3 - 0.0 - Partly cloudy 10 - - - -
29/12:30am 15.8 E 3 5 1022.4 - 0.0 - Partly cloudy 10 - - - -
29/12:00am 15.5 ENE 3 4 1022.5 - 0.0 - Partly cloudy 10 - - - -
 
Date/Time
EST
Temp
°C
Wind Pressure Rain since
9am
mm
Weather Cloud Vis
km
Sea
Height
m
Swell
Dir  Spd
kts
Gust
kts
hPa Trend Height
m
Period
s
Dir
28/11:30pm 15.3 CALM 0 0 1022.5 - 0.0 - Partly cloudy 10 - - - -
28/11:00pm 15.6 CALM 0 0 1022.5 - 0.0 - Mostly clear 10 - - - -
28/10:30pm 15.8 ENE 4 4 1022.5 - 0.0 - Partly cloudy 10 - - - -
28/10:00pm 15.7 E 4 4 1022.5 - 0.0 - Partly cloudy 10 - - - -
28/09:30pm 15.6 E 4 4 1022.5 - 0.0 - Partly cloudy 10 - - - -
28/09:00pm 14.9 E 4 4 1022.5 - 0.0 - - 10 - - - -
28/08:30pm 14.9 E 4 4 1022.6 - 0.0 - - 10 - - - -
28/08:00pm 15.5 E 4 4 1022.6 - 0.0 - Mostly clear 10 - - - -
28/07:30pm 15.6 ESE 4 5 1022.4 - 0.0 - Partly cloudy 10 - - - -
28/07:00pm 15.8 E 4 6 1022.2 - 0.0 - Partly cloudy 10 - - - -
28/06:30pm 15.7 E 4 6 1021.9 - 0.0 - Partly cloudy 10 - - - -
28/06:00pm 16.5 ESE 5 7 1021.7 - 0.0 - Partly cloudy 10 - - - -
28/05:30pm 16.6 ESE 4 5 1021.4 - 0.0 - Partly cloudy 10 - - - -
28/05:00pm 16.6 ESE 4 6 1020.8 - 0.0 - Mostly cloudy 10 - - - -
28/04:30pm 16.8 ESE 5 7 1020.6 - 0.0 - Partly cloudy 10 - - - -
28/04:00pm 17.7 SE 5 9 1020.4 - 0.0 - Partly cloudy 10 - - - -
28/03:30pm 18.2 SE 5 6 1020.3 - 0.0 - - 10 - - - -
28/03:00pm 19.1 SSE 6 9 1020.2 - 0.0 - Partly cloudy 10 - - - -
28/02:30pm 19.6 S 5 7 1020.2 - 0.0 - Partly cloudy 10 - - - -
28/02:00pm 19.2 S 6 9 1020.2 - 0.0 - Mostly clear 10 - - - -
28/01:30pm 19.1 S 8 10 1020.1 - 0.0 - Partly cloudy 10 - - - -
28/01:00pm 20.1 SSE 8 11 1020.0 - 0.0 - Partly cloudy 10 - - - -
28/12:30pm 20.0 S 8 14 1020.0 - 0.0 - - 10 - - - -
28/12:00pm 20.0 SSW 7 10 1020.1 - 0.0 - - 10 - - - -
28/11:30am 19.9 SSW 7 10 1020.3 - 0.0 - - 10 - - - -
28/11:00am 20.0 SSW 9 13 1020.5 - 0.0 - - 10 - - - -
28/10:30am 19.6 S 9 12 1020.7 - 0.0 - - 10 - - - -
28/10:00am 19.7 S 9 13 1020.9 - 0.0 - - 10 - - - -
28/09:30am 19.5 S 9 15 1021.2 - 0.0 - - 10 - - - -
28/09:00am 19.9 S 9 13 1021.4 - 0.0 - - 10 - - - -
28/08:30am 19.5 S 8 11 1021.6 - 0.0 - - 10 - - - -
28/08:00am 19.2 S 8 12 1021.4 - 0.0 - - 10 - - - -
28/07:30am 19.0 S 7 9 1021.2 - 0.0 - - 10 - - - -
28/07:00am 18.3 S 8 12 1020.9 - 0.0 - - 10 - - - -
28/06:30am 17.8 S 7 10 1020.8 - 0.0 - Partly cloudy 10 - - - -
28/06:00am 17.0 S 7 10 1020.5 - 0.0 - Partly cloudy 10 - - - -
28/05:30am 17.5 S 8 10 1020.4 - 0.0 - Partly cloudy 10 - - - -
28/05:00am 17.6 S 7 10 1020.1 - 0.0 - Cloudy 10 - - - -
28/04:30am 17.3 SSE 6 8 1019.8 - 0.0 - Partly cloudy 10 - - - -
28/04:00am 17.0 S 5 7 1019.7 - 0.0 - Partly cloudy 10 - - - -
28/03:30am 16.4 SSE 5 8 1019.5 - 0.0 - Partly cloudy 10 - - - -
28/03:00am 16.6 SSE 6 7 1019.7 - 0.0 - Partly cloudy 10 - - - -
28/02:30am 16.2 S 5 6 1019.7 - 0.0 - - 10 - - - -
28/02:00am 16.2 S 5 6 1019.9 - 0.0 - Mostly clear 10 - - - -
28/01:30am 16.9 S 6 8 1019.9 - 0.0 - Partly cloudy 10 - - - -
28/01:00am 16.4 SSE 5 6 1019.9 - 0.0 - Partly cloudy 10 - - - -
28/12:30am 16.8 SSE 6 7 1020.1 - 0.0 - Partly cloudy 10 - - - -
28/12:00am 17.2 SSE 5 7 1020.2 - 0.0 - Partly cloudy 10 - - - -
 
Date/Time
EST
Temp
°C
Wind Pressure Rain since
9am
mm
Weather Cloud Vis
km
Sea
Height
m
Swell
Dir  Spd
kts
Gust
kts
hPa Trend Height
m
Period
s
Dir
27/11:30pm 17.0 SSE 6 8 1020.3 - 0.0 - Partly cloudy 10 - - - -
27/11:00pm 17.0 SSE 6 7 1020.2 - 0.0 - Partly cloudy 10 - - - -
27/10:30pm 17.4 S 6 8 1020.3 - 0.0 - Partly cloudy 10 - - - -
27/10:00pm 17.7 SSE 7 10 1020.2 - 0.0 - Partly cloudy 10 - - - -

Other Formats:

Comma delimited format used in spreadsheet applications
http://www.bom.gov.au/fwo/IDN60701/IDN60701.94996.axf

JavaScript Object Notation format (JSON) in row-major order
http://www.bom.gov.au/fwo/IDN60701/IDN60701.94996.json